Time,TemperatureF,DewpointF,PressureIn,WindDirection,WindDirectionDegrees,WindSpeedMPH,WindSpeedGustMPH,Humidity,HourlyPrecipIn,Conditions,Clouds,dailyrainin,SoftwareType,DateUTC
2013-02-18 00:10:00,19.1,8.2,30.19,East,79,0.0,0.0,62,0.00,,,0.00,Wunderground v.1.12,2013-02-18 05:10:00,
2013-02-18 00:20:00,19.1,8.2,30.18,East,82,0.0,0.0,62,0.00,,,0.00,Wunderground v.1.12,2013-02-18 05:20:00,
2013-02-18 00:30:00,19.1,8.6,30.18,N/A,-737280,0.0,0.0,63,0.00,,,0.00,Wunderground v.1.12,2013-02-18 05:30:00,
2013-02-18 00:40:00,19.2,8.7,30.18,East,82,0.0,0.0,63,0.00,,,0.00,Wunderground v.1.12,2013-02-18 05:40:00,
2013-02-18 00:50:00,19.2,8.7,30.18,East,83,0.0,0.0,63,0.00,,,0.00,Wunderground v.1.12,2013-02-18 05:50:00,
2013-02-18 01:00:00,19.2,9.0,30.18,N/A,-737280,0.0,0.0,64,0.00,,,0.00,Wunderground v.1.12,2013-02-18 06:00:00,
2013-02-18 01:10:00,19.1,8.9,30.18,East,83,0.0,0.0,64,0.00,,,0.00,Wunderground v.1.12,2013-02-18 06:10:00,
2013-02-18 01:20:00,19.1,8.9,30.19,N/A,-737280,0.0,0.0,64,0.00,,,0.00,Wunderground v.1.12,2013-02-18 06:20:00,
2013-02-18 01:30:00,19.1,9.3,30.18,N/A,-737280,0.0,0.0,65,0.00,,,0.00,Wunderground v.1.12,2013-02-18 06:30:00,
2013-02-18 01:40:00,19.2,9.0,30.18,East,93,0.0,0.0,64,0.00,,,0.00,Wunderground v.1.12,2013-02-18 06:40:00,
2013-02-18 01:50:00,19.2,9.0,30.17,East,93,0.0,0.0,64,0.00,,,0.00,Wunderground v.1.12,2013-02-18 06:50:00,
2013-02-18 02:00:00,19.2,9.0,30.18,ESE,113,0.0,3.0,64,0.00,,,0.00,Wunderground v.1.12,2013-02-18 07:00:00,
2013-02-18 02:10:00,19.4,9.2,30.18,SE,144,0.0,0.0,64,0.00,,,0.00,Wunderground v.1.12,2013-02-18 07:10:00,
2013-02-18 02:20:00,19.4,9.5,30.17,SE,145,0.0,0.0,65,0.00,,,0.00,Wunderground v.1.12,2013-02-18 07:20:00,
2013-02-18 02:30:00,19.4,9.5,30.18,South,180,0.0,3.0,65,0.00,,,0.00,Wunderground v.1.12,2013-02-18 07:30:00,
2013-02-18 02:40:00,19.5,9.6,30.18,SSW,209,0.0,0.0,65,0.00,,,0.00,Wunderground v.1.12,2013-02-18 07:40:00,
2013-02-18 02:50:00,19.7,9.8,30.18,SSW,209,0.0,0.0,65,0.00,,,0.00,Wunderground v.1.12,2013-02-18 07:50:00,
2013-02-18 03:10:00,19.9,10.0,30.17,SSW,203,0.0,5.0,65,0.00,,,0.00,Wunderground v.1.12,2013-02-18 08:10:00,
2013-02-18 03:20:00,20.2,10.0,30.17,South,175,0.0,3.0,64,0.00,,,0.00,Wunderground v.1.12,2013-02-18 08:20:00,
2013-02-18 03:30:00,20.3,10.1,30.16,South,180,1.0,6.0,64,0.00,,,0.00,Wunderground v.1.12,2013-02-18 08:30:00,
2013-02-18 03:40:00,20.5,10.2,30.16,SSW,192,1.0,1.0,64,0.00,,,0.00,Wunderground v.1.12,2013-02-18 08:40:00,
2013-02-18 03:50:00,20.5,9.9,30.15,South,191,2.0,2.0,63,0.00,,,0.00,Wunderground v.1.12,2013-02-18 08:50:00,
2013-02-18 04:10:00,20.6,10.0,30.15,SSE,158,1.0,6.0,63,0.00,,,0.00,Wunderground v.1.12,2013-02-18 09:10:00,
2013-02-18 04:20:00,20.6,10.0,30.15,SSW,205,1.0,1.0,63,0.00,,,0.00,Wunderground v.1.12,2013-02-18 09:20:00,
2013-02-18 04:30:00,20.6,9.6,30.15,South,180,1.0,6.0,62,0.00,,,0.00,Wunderground v.1.12,2013-02-18 09:30:00,
2013-02-18 04:40:00,20.8,9.5,30.15,SSW,202,2.0,2.0,61,0.00,,,0.00,Wunderground v.1.12,2013-02-18 09:40:00,
2013-02-18 04:50:00,20.6,9.6,30.14,SE,143,1.0,1.0,62,0.00,,,0.00,Wunderground v.1.12,2013-02-18 09:50:00,
2013-02-18 05:00:00,20.6,9.6,30.13,SSE,158,2.0,6.0,62,0.00,,,0.00,Wunderground v.1.12,2013-02-18 10:00:00,
2013-02-18 05:10:00,20.6,9.6,30.13,South,191,1.0,1.0,62,0.00,,,0.00,Wunderground v.1.12,2013-02-18 10:10:00,
2013-02-18 05:20:00,20.6,10.0,30.12,South,180,1.0,6.0,63,0.00,,,0.00,Wunderground v.1.12,2013-02-18 10:20:00,
2013-02-18 05:30:00,20.5,9.9,30.12,SSW,203,1.0,8.0,63,0.00,,,0.00,Wunderground v.1.12,2013-02-18 10:30:00,
2013-02-18 05:40:00,20.3,10.1,30.12,SSE,160,1.0,1.0,64,0.00,,,0.00,Wunderground v.1.12,2013-02-18 10:40:00,
2013-02-18 05:50:00,20.5,10.2,30.11,SE,138,1.0,1.0,64,0.00,,,0.00,Wunderground v.1.12,2013-02-18 10:50:00,
2013-02-18 06:00:00,20.6,10.3,30.11,SE,135,1.0,5.0,64,0.00,,,0.00,Wunderground v.1.12,2013-02-18 11:00:00,
2013-02-18 06:10:00,20.8,10.5,30.11,South,178,1.0,3.0,64,0.00,,,0.00,Wunderground v.1.12,2013-02-18 11:10:00,
2013-02-18 06:20:00,21.0,10.7,30.11,SSE,158,1.0,6.0,64,0.00,,,0.00,Wunderground v.1.12,2013-02-18 11:20:00,
2013-02-18 06:30:00,21.1,10.5,30.10,SSE,158,1.0,7.0,63,0.00,,,0.00,Wunderground v.1.12,2013-02-18 11:30:00,
2013-02-18 06:40:00,21.3,10.7,30.10,SE,141,2.0,2.0,63,0.00,,,0.00,Wunderground v.1.12,2013-02-18 11:40:00,
2013-02-18 06:50:00,21.4,10.7,30.09,South,175,2.0,2.0,63,0.00,,,0.00,Wunderground v.1.12,2013-02-18 11:50:00,
2013-02-18 07:10:00,21.8,10.8,30.09,South,184,2.0,3.0,62,0.00,,,0.00,Wunderground v.1.12,2013-02-18 12:10:00,
2013-02-18 07:20:00,21.9,10.9,30.08,SSE,157,3.0,5.0,62,0.00,,,0.00,Wunderground v.1.12,2013-02-18 12:20:00,
2013-02-18 07:40:00,22.4,11.0,30.07,SE,133,3.0,5.0,61,0.00,,,0.00,Wunderground v.1.12,2013-02-18 12:40:00,
2013-02-18 07:50:00,22.7,11.3,30.07,South,181,3.0,3.0,61,0.00,,,0.00,Wunderground v.1.12,2013-02-18 12:50:00,
2013-02-18 08:00:00,22.9,11.1,30.07,SSE,158,3.0,8.0,60,0.00,,,0.00,Wunderground v.1.12,2013-02-18 13:00:00,
2013-02-18 08:10:00,22.9,11.1,30.07,SSE,167,2.0,2.0,60,0.00,,,0.00,Wunderground v.1.12,2013-02-18 13:10:00,
2013-02-18 08:20:00,23.2,11.4,30.06,South,171,2.0,2.0,60,0.00,,,0.00,Wunderground v.1.12,2013-02-18 13:20:00,
2013-02-18 08:30:00,23.6,11.4,30.06,South,180,3.0,10.0,59,0.00,,,0.00,Wunderground v.1.12,2013-02-18 13:30:00,
2013-02-18 08:40:00,24.4,11.3,30.06,SSE,161,3.0,5.0,57,0.00,,,0.00,Wunderground v.1.12,2013-02-18 13:40:00,
2013-02-18 08:50:00,25.3,11.4,30.04,SE,145,4.0,8.0,55,0.00,,,0.00,Wunderground v.1.12,2013-02-18 13:50:00,
2013-02-18 09:10:00,26.0,11.6,30.04,SE,141,4.0,7.0,54,0.00,,,0.00,Wunderground v.1.12,2013-02-18 14:10:00,
2013-02-18 09:20:00,26.4,12.0,30.03,SSE,162,5.0,5.0,54,0.00,,,0.00,Wunderground v.1.12,2013-02-18 14:20:00,
2013-02-18 09:30:00,27.2,12.3,30.01,South,180,5.0,11.0,53,0.00,,,0.00,Wunderground v.1.12,2013-02-18 14:30:00,
2013-02-18 09:40:00,28.1,12.3,30.01,SSW,202,2.0,2.0,51,0.00,,,0.00,Wunderground v.1.12,2013-02-18 14:40:00,
2013-02-18 09:50:00,29.0,12.7,30.00,SE,128,3.0,6.0,50,0.00,,,0.00,Wunderground v.1.12,2013-02-18 14:50:00,
2013-02-18 10:00:00,29.4,13.0,29.99,SSE,158,4.0,14.0,50,0.00,,,0.00,Wunderground v.1.12,2013-02-18 15:00:00,
2013-02-18 10:10:00,30.1,13.2,29.99,South,189,4.0,5.0,49,0.00,,,0.00,Wunderground v.1.12,2013-02-18 15:10:00,
2013-02-18 10:20:00,30.6,13.7,29.99,South,180,4.0,11.0,49,0.00,,,0.00,Wunderground v.1.12,2013-02-18 15:20:00,
2013-02-18 10:30:00,31.6,14.1,29.98,South,180,5.0,16.0,48,0.00,,,0.00,Wunderground v.1.12,2013-02-18 15:30:00,
2013-02-18 10:40:00,32.1,14.6,29.98,South,179,6.0,6.0,48,0.00,,,0.00,Wunderground v.1.12,2013-02-18 15:40:00,
2013-02-18 10:50:00,32.2,14.7,29.97,SSE,158,5.0,11.0,48,0.00,,,0.00,Wunderground v.1.12,2013-02-18 15:50:00,
2013-02-18 11:10:00,34.1,15.5,29.97,SW,222,6.0,6.0,46,0.00,,,0.00,Wunderground v.1.12,2013-02-18 16:10:00,
2013-02-18 11:20:00,34.4,15.7,29.96,SSW,209,6.0,10.0,46,0.00,,,0.00,Wunderground v.1.12,2013-02-18 16:20:00,
2013-02-18 11:30:00,35.0,16.3,29.95,SSE,158,6.0,19.0,46,0.00,,,0.00,Wunderground v.1.12,2013-02-18 16:30:00,
2013-02-18 11:40:00,36.0,16.7,29.95,South,169,6.0,6.0,45,0.00,,,0.00,Wunderground v.1.12,2013-02-18 16:40:00,
2013-02-18 11:50:00,36.2,17.4,29.94,South,180,6.0,12.0,46,0.00,,,0.00,Wunderground v.1.12,2013-02-18 16:50:00,
2013-02-18 12:00:00,37.6,18.2,29.93,SSW,203,4.0,12.0,45,0.00,,,0.00,Wunderground v.1.12,2013-02-18 17:00:00,
2013-02-18 12:10:00,37.6,18.7,29.93,SSW,203,6.0,6.0,46,0.00,,,0.00,Wunderground v.1.12,2013-02-18 17:10:00,
2013-02-18 12:20:00,38.3,19.3,29.92,South,185,6.0,6.0,46,0.00,,,0.00,Wunderground v.1.12,2013-02-18 17:20:00,
2013-02-18 12:40:00,39.6,20.0,29.91,South,178,7.0,7.0,45,0.00,,,0.00,Wunderground v.1.12,2013-02-18 17:40:00,
2013-02-18 12:50:00,40.1,21.0,29.91,South,188,7.0,7.0,46,0.00,,,0.00,Wunderground v.1.12,2013-02-18 17:50:00,
2013-02-18 13:00:00,41.1,21.3,29.89,SSW,203,5.0,17.0,45,0.00,,,0.00,Wunderground v.1.12,2013-02-18 18:00:00,
2013-02-18 13:10:00,41.5,22.2,29.89,SSW,199,6.0,12.0,46,0.00,,,0.00,Wunderground v.1.12,2013-02-18 18:10:00,
2013-02-18 13:20:00,42.1,22.8,29.87,SSW,192,7.0,7.0,46,0.00,,,0.00,Wunderground v.1.12,2013-02-18 18:20:00,
2013-02-18 13:30:00,41.9,23.6,29.85,South,180,6.0,17.0,48,0.00,,,0.00,Wunderground v.1.12,2013-02-18 18:30:00,
2013-02-18 13:40:00,42.6,23.8,29.85,South,185,6.0,6.0,47,0.00,,,0.00,Wunderground v.1.12,2013-02-18 18:40:00,
2013-02-18 13:50:00,43.2,24.3,29.85,SSW,203,5.0,14.0,47,0.00,,,0.00,Wunderground v.1.12,2013-02-18 18:50:00,
2013-02-18 14:00:00,45.4,25.3,29.84,South,180,4.0,12.0,45,0.00,,,0.00,Wunderground v.1.12,2013-02-18 19:00:00,
2013-02-18 14:10:00,46.1,25.9,29.84,SSW,212,5.0,7.0,45,0.00,,,0.00,Wunderground v.1.12,2013-02-18 19:10:00,
2013-02-18 14:20:00,46.4,26.2,29.84,SSW,203,5.0,12.0,45,0.00,,,0.00,Wunderground v.1.12,2013-02-18 19:20:00,
2013-02-18 14:30:00,47.1,27.4,29.83,SSW,203,4.0,13.0,46,0.00,,,0.00,Wunderground v.1.12,2013-02-18 19:30:00,
2013-02-18 14:40:00,48.0,28.2,29.83,SSW,206,4.0,7.0,46,0.00,,,0.00,Wunderground v.1.12,2013-02-18 19:40:00,
2013-02-18 14:50:00,48.3,29.0,29.82,SSW,195,6.0,6.0,47,0.00,,,0.00,Wunderground v.1.12,2013-02-18 19:50:00,
2013-02-18 15:00:00,49.2,28.7,29.81,SSW,203,4.0,10.0,45,0.00,,,0.00,Wunderground v.1.12,2013-02-18 20:00:00,
2013-02-18 15:10:00,48.9,29.0,29.81,ESE,123,3.0,6.0,46,0.00,,,0.00,Wunderground v.1.12,2013-02-18 20:10:00,
2013-02-18 15:20:00,48.6,29.3,29.81,SE,136,3.0,7.0,47,0.00,,,0.00,Wunderground v.1.12,2013-02-18 20:20:00,
2013-02-18 15:30:00,48.2,29.4,29.81,SSE,158,3.0,11.0,48,0.00,,,0.00,Wunderground v.1.12,2013-02-18 20:30:00,
2013-02-18 15:40:00,48.2,29.9,29.81,SSW,213,2.0,2.0,49,0.00,,,0.00,Wunderground v.1.12,2013-02-18 20:40:00,
2013-02-18 15:50:00,48.3,30.0,29.79,SSW,203,2.0,9.0,49,0.00,,,0.00,Wunderground v.1.12,2013-02-18 20:50:00,
2013-02-18 16:10:00,48.8,31.0,29.78,South,174,3.0,3.0,50,0.00,,,0.00,Wunderground v.1.12,2013-02-18 21:10:00,
2013-02-18 16:20:00,48.6,31.3,29.77,SSE,155,5.0,5.0,51,0.00,,,0.00,Wunderground v.1.12,2013-02-18 21:20:00,
2013-02-18 16:30:00,48.5,31.7,29.76,SSE,158,4.0,12.0,52,0.00,,,0.00,Wunderground v.1.12,2013-02-18 21:30:00,
2013-02-18 16:40:00,48.5,32.1,29.76,SSW,209,3.0,3.0,53,0.00,,,0.00,Wunderground v.1.12,2013-02-18 21:40:00,
2013-02-18 16:50:00,48.5,32.1,29.76,SSE,158,2.0,10.0,53,0.00,,,0.00,Wunderground v.1.12,2013-02-18 21:50:00,
2013-02-18 17:00:00,48.5,32.6,29.76,SSE,158,3.0,10.0,54,0.00,,,0.00,Wunderground v.1.12,2013-02-18 22:00:00,
2013-02-18 17:10:00,48.8,32.9,29.76,East,92,3.0,3.0,54,0.00,,,0.00,Wunderground v.1.12,2013-02-18 22:10:00,
2013-02-18 17:20:00,48.9,33.0,29.75,SSE,167,4.0,4.0,54,0.00,,,0.00,Wunderground v.1.12,2013-02-18 22:20:00,
2013-02-18 17:30:00,48.9,33.4,29.74,SSE,158,4.0,10.0,55,0.00,,,0.00,Wunderground v.1.12,2013-02-18 22:30:00,
2013-02-18 17:40:00,48.6,33.1,29.74,South,191,3.0,3.0,55,0.00,,,0.00,Wunderground v.1.12,2013-02-18 22:40:00,
2013-02-18 17:50:00,48.5,33.5,29.74,SSE,151,4.0,8.0,56,0.00,,,0.00,Wunderground v.1.12,2013-02-18 22:50:00,
2013-02-18 18:00:00,48.2,33.2,29.74,South,180,4.0,13.0,56,0.00,,,0.00,Wunderground v.1.12,2013-02-18 23:00:00,
2013-02-18 18:10:00,47.9,32.9,29.74,South,184,3.0,3.0,56,0.00,,,0.00,Wunderground v.1.12,2013-02-18 23:10:00,
2013-02-18 18:20:00,47.7,33.2,29.73,South,189,4.0,9.0,57,0.00,,,0.00,Wunderground v.1.12,2013-02-18 23:20:00,
2013-02-18 18:30:00,47.7,33.2,29.73,SSE,158,3.0,13.0,57,0.00,,,0.00,Wunderground v.1.12,2013-02-18 23:30:00,
2013-02-18 18:40:00,47.7,33.6,29.73,South,178,4.0,4.0,58,0.00,,,0.00,Wunderground v.1.12,2013-02-18 23:40:00,
2013-02-18 18:50:00,47.7,33.6,29.73,SSE,158,3.0,12.0,58,0.00,,,0.00,Wunderground v.1.12,2013-02-18 23:50:00,
2013-02-18 19:00:00,48.0,33.5,29.73,South,180,4.0,12.0,57,0.00,,,0.00,Wunderground v.1.12,2013-02-19 00:00:00,
2013-02-18 19:10:00,47.9,33.4,29.73,SSW,208,3.0,4.0,57,0.00,,,0.00,Wunderground v.1.12,2013-02-19 00:10:00,
2013-02-18 19:20:00,47.4,32.9,29.72,SSW,193,3.0,3.0,57,0.00,,,0.00,Wunderground v.1.12,2013-02-19 00:20:00,
2013-02-18 19:30:00,47.0,33.4,29.72,South,180,3.0,12.0,59,0.00,,,0.00,Wunderground v.1.12,2013-02-19 00:30:00,
2013-02-18 19:40:00,46.5,32.5,29.72,SSE,152,5.0,5.0,58,0.00,,,0.00,Wunderground v.1.12,2013-02-19 00:40:00,
2013-02-18 19:50:00,46.4,32.0,29.71,SSW,213,5.0,5.0,57,0.00,,,0.00,Wunderground v.1.12,2013-02-19 00:50:00,
2013-02-18 20:00:00,46.4,32.0,29.71,South,180,5.0,13.0,57,0.00,,,0.00,Wunderground v.1.12,2013-02-19 01:00:00,
2013-02-18 20:10:00,46.5,31.6,29.71,SSW,195,7.0,7.0,56,0.00,,,0.00,Wunderground v.1.12,2013-02-19 01:10:00,
2013-02-18 20:20:00,46.5,31.6,29.69,South,178,4.0,4.0,56,0.00,,,0.00,Wunderground v.1.12,2013-02-19 01:20:00,
2013-02-18 20:30:00,46.5,31.6,29.68,South,180,4.0,13.0,56,0.00,,,0.00,Wunderground v.1.12,2013-02-19 01:30:00,
2013-02-18 20:40:00,46.5,31.6,29.68,SSW,205,5.0,6.0,56,0.00,,,0.00,Wunderground v.1.12,2013-02-19 01:40:00,
2013-02-18 20:50:00,46.8,31.9,29.67,SSW,196,6.0,8.0,56,0.00,,,0.00,Wunderground v.1.12,2013-02-19 01:50:00,
2013-02-18 21:00:00,47.0,32.1,29.66,South,180,6.0,18.0,56,0.00,,,0.00,Wunderground v.1.12,2013-02-19 02:00:00,
2013-02-18 21:10:00,47.3,32.4,29.66,SE,144,5.0,8.0,56,0.00,,,0.00,Wunderground v.1.12,2013-02-19 02:10:00,
2013-02-18 21:20:00,47.3,32.4,29.65,South,180,5.0,17.0,56,0.00,,,0.00,Wunderground v.1.12,2013-02-19 02:20:00,
2013-02-18 21:30:00,47.6,32.7,29.64,South,180,5.0,13.0,56,0.00,,,0.00,Wunderground v.1.12,2013-02-19 02:30:00,
2013-02-18 21:40:00,47.9,32.9,29.64,SSW,198,6.0,6.0,56,0.00,,,0.00,Wunderground v.1.12,2013-02-19 02:40:00,
2013-02-18 21:50:00,48.0,33.0,29.64,WSW,243,5.0,12.0,56,0.00,,,0.00,Wunderground v.1.12,2013-02-19 02:50:00,
2013-02-18 22:00:00,48.2,33.7,29.64,SSW,203,6.0,17.0,57,0.00,,,0.00,Wunderground v.1.12,2013-02-19 03:00:00,
2013-02-18 22:10:00,48.2,33.7,29.64,WSW,241,4.0,4.0,57,0.00,,,0.00,Wunderground v.1.12,2013-02-19 03:10:00,
2013-02-18 22:20:00,48.0,33.9,29.62,South,180,3.0,12.0,58,0.00,,,0.00,Wunderground v.1.12,2013-02-19 03:20:00,
2013-02-18 22:30:00,47.7,34.1,29.61,South,180,2.0,8.0,59,0.00,,,0.00,Wunderground v.1.12,2013-02-19 03:30:00,
2013-02-18 22:40:00,47.4,33.8,29.61,SSE,168,1.0,2.0,59,0.00,,,0.00,Wunderground v.1.12,2013-02-19 03:40:00,
2013-02-18 22:50:00,47.0,33.8,29.60,SSE,162,2.0,3.0,60,0.00,,,0.00,Wunderground v.1.12,2013-02-19 03:50:00,
2013-02-18 23:00:00,46.7,33.5,29.59,South,180,1.0,8.0,60,0.00,,,0.00,Wunderground v.1.12,2013-02-19 04:00:00,
2013-02-18 23:10:00,46.4,33.7,29.59,SSE,147,2.0,7.0,61,0.00,,,0.00,Wunderground v.1.12,2013-02-19 04:10:00,
2013-02-18 23:20:00,46.4,33.7,29.58,South,180,3.0,13.0,61,0.00,,,0.00,Wunderground v.1.12,2013-02-19 04:20:00,
2013-02-18 23:30:00,46.1,33.4,29.58,South,180,3.0,11.0,61,0.00,,,0.00,Wunderground v.1.12,2013-02-19 04:30:00,
2013-02-18 23:40:00,46.1,33.0,29.57,South,169,3.0,9.0,60,0.00,,,0.00,Wunderground v.1.12,2013-02-19 04:40:00,
2013-02-18 23:50:00,46.2,33.1,29.57,South,180,3.0,11.0,60,0.00,,,0.00,Wunderground v.1.12,2013-02-19 04:50:00,